VTSR

Ranong Airport

Thailand
TAF VTSR 210500Z 2106/2206 33006KT 9999 SCT025 TEMPO 2108/2112 VRB10G20KT 5000 TSRA FEW018CB SCT025 BKN040 BECMG 2113/2115 00000KT 8000 FEW040 BECMG 2202/2204 10004KT 9999
Issued Valid From Valid To
Apr-21 @ 05:00 UTC
(5 hours ago)
Apr-21 @ 06:00 UTC
(4 hours ago)
Apr-22 @ 06:00 UTC
(in 20 hours)
Apr-21 @ 06:00 to Apr-21 @ 13:00
TAF VTSR 210500Z 2106/2206 33006KT 9999 SCT025
Wind Visibility Clouds
330° at 6 knots 10,000+ meters
  • Scattered at 2,500' AGL
Temporary Apr-21 @ 08:00 to Apr-21 @ 12:00
TEMPO 2108/2112 VRB10G20KT 5000 TSRA FEW018CB SCT025 BKN040
Wind Visibility Clouds Conditions
Variable at 10 knots
 Gusting to 20 knots
5,005 meters
  • Few at 1,800' AGL
  • Scattered at 2,500' AGL
  • Broken at 4,000' AGL
  • Thunderstorm
  • Rain
Becoming Apr-21 @ 13:00 to Apr-22 @ 02:00
BECMG 2113/2115 00000KT 8000 FEW040
Visibility Clouds
7,998 meters
  • Few at 4,000' AGL
Becoming Apr-22 @ 02:00 to Apr-22 @ 06:00
BECMG 2202/2204 10004KT 9999
Wind Visibility Clouds
100° at 4 knots 10,000+ meters
  • Few at 4,000' AGL
TAF VTSR 210500Z 2106/2206 33006KT 9999 SCT025 TEMPO 2108/2112 VRB10G20KT 5000 TSRA FEW018CB SCT025 BKN040 BECMG 2113/2115 00000KT 8000 FEW040 BECMG 2202/2204 10004KT 9999
Issued Apr-21 @ 05:00 UTC
(5 hours ago)
Valid From Apr-21 @ 06:00 UTC
(4 hours ago)
Valid To Apr-22 @ 06:00 UTC
(in 20 hours)
Apr-21 @ 06:00 - Apr-21 @ 13:00
Wind Visibility
330° at 6 knots 10,000+ meters
Clouds
  • Scattered at 2,500' AGL
Temporary Apr-21 @ 08:00 - Apr-21 @ 12:00
Wind Visibility
Variable at 10 knots
 Gusting to 20 knots
5,005 meters
Clouds
  • Few at 1,800' AGL
  • Scattered at 2,500' AGL
  • Broken at 4,000' AGL
Conditions
  • Thunderstorm
  • Rain
Becoming Apr-21 @ 13:00 - Apr-22 @ 02:00
Clouds
  • Few at 4,000' AGL
Becoming Apr-22 @ 02:00 - Apr-22 @ 06:00
Wind Visibility
100° at 4 knots 10,000+ meters
Clouds
  • Few at 4,000' AGL